createdAt,value
2019-01-12T00:00:08.314Z,3.89
2019-01-12T00:01:12.360Z,3.88
2019-01-12T00:02:16.589Z,3.87
2019-01-12T00:03:20.770Z,3.86
2019-01-12T00:04:24.886Z,3.86
2019-01-12T00:05:29.101Z,3.87
2019-01-12T00:06:33.262Z,3.88
2019-01-12T00:07:37.359Z,3.89
2019-01-12T00:08:41.379Z,3.88
2019-01-12T00:09:45.591Z,3.88
2019-01-12T00:10:49.823Z,3.87
2019-01-12T00:11:53.982Z,3.87
2019-01-12T00:12:58.088Z,3.87
2019-01-12T00:14:02.300Z,3.88
2019-01-12T00:15:06.436Z,3.89
2019-01-12T00:16:10.552Z,3.91
2019-01-12T00:17:14.776Z,3.92
2019-01-12T00:18:18.893Z,3.94
2019-01-12T00:19:23.034Z,3.94
2019-01-12T00:20:27.079Z,3.95
2019-01-12T00:21:31.383Z,3.94
2019-01-12T00:22:35.579Z,3.92
2019-01-12T00:23:39.769Z,3.92
2019-01-12T00:24:43.811Z,3.91
2019-01-12T00:25:48.078Z,3.92
2019-01-12T00:26:52.259Z,3.93
2019-01-12T00:27:56.431Z,3.92
2019-01-12T00:29:00.508Z,3.92
2019-01-12T00:30:04.663Z,3.93
2019-01-12T00:31:08.773Z,3.94
2019-01-12T00:32:12.985Z,3.94
2019-01-12T00:33:17.148Z,3.96
2019-01-12T00:34:21.342Z,3.98
2019-01-12T00:35:25.424Z,4.00
2019-01-12T00:36:29.697Z,4.01
2019-01-12T00:37:33.763Z,4.03
2019-01-12T00:38:37.936Z,4.03
2019-01-12T00:39:42.066Z,4.05
2019-01-12T00:40:46.316Z,4.06
2019-01-12T00:41:50.496Z,4.08
2019-01-12T00:42:54.660Z,4.09
2019-01-12T00:43:58.841Z,4.11
2019-01-12T00:45:02.936Z,4.12
2019-01-12T00:46:07.097Z,4.14
2019-01-12T00:47:11.250Z,4.15
2019-01-12T00:48:15.298Z,4.18
2019-01-12T00:49:19.620Z,4.20
2019-01-12T00:50:23.693Z,4.21
2019-01-12T00:51:27.850Z,4.23
2019-01-12T00:52:31.868Z,4.25
2019-01-12T00:53:36.173Z,4.25
2019-01-12T00:54:40.245Z,4.26
2019-01-12T00:55:44.263Z,4.28
2019-01-12T00:56:48.486Z,4.28
2019-01-12T00:57:52.644Z,4.29
2019-01-12T00:58:56.874Z,4.30
2019-01-12T01:00:00.984Z,4.30
2019-01-12T01:01:05.120Z,4.31
2019-01-12T01:02:09.239Z,4.32
2019-01-12T01:03:13.478Z,4.32
2019-01-12T01:04:17.620Z,4.32
2019-01-12T01:05:21.883Z,4.33
2019-01-12T01:06:26.042Z,4.33
2019-01-12T01:07:30.164Z,4.33
2019-01-12T01:08:34.293Z,4.32
2019-01-12T01:09:38.463Z,4.32
2019-01-12T01:10:42.564Z,4.33
2019-01-12T01:11:46.720Z,4.34
2019-01-12T01:12:50.936Z,4.34
2019-01-12T01:13:55.073Z,4.33
2019-01-12T01:14:59.337Z,4.32
2019-01-12T01:16:03.511Z,4.32
2019-01-12T01:17:07.649Z,4.32
2019-01-12T01:18:11.833Z,4.33
2019-01-12T01:19:15.960Z,4.33
2019-01-12T01:20:20.203Z,4.33
2019-01-12T01:21:24.361Z,4.33
2019-01-12T01:22:28.506Z,4.35
2019-01-12T01:23:32.686Z,4.37
2019-01-12T01:24:36.880Z,4.39
2019-01-12T01:25:41.060Z,4.41
2019-01-12T01:26:45.271Z,4.42
2019-01-12T01:27:49.349Z,4.43
2019-01-12T01:28:53.571Z,4.43
2019-01-12T01:29:57.771Z,4.43
2019-01-12T01:31:01.977Z,4.42
2019-01-12T01:32:06.081Z,4.43
2019-01-12T01:33:10.313Z,4.43
2019-01-12T01:34:14.395Z,4.44
2019-01-12T01:35:18.630Z,4.44
2019-01-12T01:36:22.817Z,4.44
2019-01-12T01:37:29.816Z,4.44
2019-01-12T01:38:33.103Z,4.45
2019-01-12T01:39:37.190Z,4.46
2019-01-12T01:40:41.367Z,4.46
2019-01-12T01:41:45.611Z,4.48
2019-01-12T01:42:49.704Z,4.48
2019-01-12T01:43:53.818Z,4.48
2019-01-12T01:44:58.005Z,4.49
2019-01-12T01:46:02.165Z,4.49
2019-01-12T01:47:06.334Z,4.49
2019-01-12T01:48:10.534Z,4.48
2019-01-12T01:49:14.732Z,4.48
2019-01-12T01:50:18.866Z,4.49
2019-01-12T01:51:22.959Z,4.48
2019-01-12T01:52:27.102Z,4.49
2019-01-12T01:53:31.313Z,4.49
2019-01-12T01:54:35.441Z,4.50
2019-01-12T01:55:39.587Z,4.50
2019-01-12T01:56:43.863Z,4.51
2019-01-12T01:57:48.052Z,4.52
2019-01-12T01:58:52.137Z,4.52
2019-01-12T01:59:56.362Z,4.53
2019-01-12T02:01:00.503Z,4.54
2019-01-12T02:02:04.662Z,4.55
2019-01-12T02:03:08.856Z,4.57
2019-01-12T02:04:13.022Z,4.57
2019-01-12T02:05:17.119Z,4.57
2019-01-12T02:06:21.284Z,4.58
2019-01-12T02:07:25.411Z,4.60
2019-01-12T02:08:29.540Z,4.63
2019-01-12T02:09:33.726Z,4.64
2019-01-12T02:10:37.919Z,4.65
2019-01-12T02:11:42.037Z,4.66
2019-01-12T02:12:46.181Z,4.67
2019-01-12T02:13:50.388Z,4.68
2019-01-12T02:14:54.511Z,4.69
2019-01-12T02:15:58.688Z,4.71
2019-01-12T02:17:02.798Z,4.73
2019-01-12T02:18:06.959Z,4.74
2019-01-12T02:19:11.002Z,4.72
2019-01-12T02:20:15.202Z,4.69
2019-01-12T02:21:19.343Z,4.67
2019-01-12T02:22:23.579Z,4.66
2019-01-12T02:23:27.766Z,4.65
2019-01-12T02:24:31.835Z,4.66
2019-01-12T02:25:36.092Z,4.66
2019-01-12T02:26:40.174Z,4.66
2019-01-12T02:27:44.402Z,4.65
2019-01-12T02:28:48.605Z,4.64
2019-01-12T02:29:52.778Z,4.62
2019-01-12T02:30:56.869Z,4.59
2019-01-12T02:32:01.000Z,4.58
2019-01-12T02:33:05.159Z,4.58
2019-01-12T02:34:09.269Z,4.56
2019-01-12T02:35:13.447Z,4.54
2019-01-12T02:36:17.634Z,4.52
2019-01-12T02:37:21.756Z,4.50
2019-01-12T02:38:25.881Z,4.48
2019-01-12T02:39:30.135Z,4.45
2019-01-12T02:40:34.332Z,4.44
2019-01-12T02:41:38.516Z,4.43
2019-01-12T02:42:42.710Z,4.41
2019-01-12T02:43:46.893Z,4.40
2019-01-12T02:44:51.103Z,4.37
2019-01-12T02:45:55.281Z,4.36
2019-01-12T02:46:59.408Z,4.36
2019-01-12T02:48:03.619Z,4.35
2019-01-12T02:49:07.813Z,4.34
2019-01-12T02:50:11.994Z,4.33
2019-01-12T02:51:16.107Z,4.33
2019-01-12T02:52:20.247Z,4.35
2019-01-12T02:53:24.371Z,4.35
2019-01-12T02:54:28.560Z,4.34
2019-01-12T02:55:32.761Z,4.32
2019-01-12T02:56:36.997Z,4.32
2019-01-12T02:57:41.156Z,4.33
2019-01-12T02:58:45.141Z,4.34
2019-01-12T02:59:49.364Z,4.33
2019-01-12T03:00:53.601Z,4.32
2019-01-12T03:01:57.708Z,4.30
2019-01-12T03:03:01.966Z,4.28
2019-01-12T03:04:06.076Z,4.27
2019-01-12T03:05:10.193Z,4.27
2019-01-12T03:06:14.354Z,4.27
2019-01-12T03:07:18.537Z,4.29
2019-01-12T03:08:22.749Z,4.29
2019-01-12T03:09:26.949Z,4.28
2019-01-12T03:10:31.019Z,4.27
2019-01-12T03:11:35.171Z,4.26
2019-01-12T03:12:39.208Z,4.27
2019-01-12T03:13:43.410Z,4.26
2019-01-12T03:14:47.582Z,4.26
2019-01-12T03:15:51.744Z,4.25
2019-01-12T03:16:55.891Z,4.24
2019-01-12T03:18:00.006Z,4.26
2019-01-12T03:19:04.209Z,4.26
2019-01-12T03:20:08.400Z,4.27
2019-01-12T03:21:12.542Z,4.28
2019-01-12T03:22:16.652Z,4.29
2019-01-12T03:23:20.714Z,4.29
2019-01-12T03:24:25.016Z,4.29
2019-01-12T03:25:29.108Z,4.30
2019-01-12T03:26:33.253Z,4.29
2019-01-12T03:27:37.348Z,4.29
2019-01-12T03:28:41.644Z,4.28
2019-01-12T03:29:45.807Z,4.28
2019-01-12T03:30:49.854Z,4.28
2019-01-12T03:31:54.043Z,4.27
2019-01-12T03:32:58.174Z,4.27
2019-01-12T03:34:02.294Z,4.25
2019-01-12T03:35:06.550Z,4.25
2019-01-12T03:36:10.651Z,4.24
2019-01-12T03:37:14.864Z,4.24
2019-01-12T03:38:19.078Z,4.24
2019-01-12T03:39:23.168Z,4.24
2019-01-12T03:40:27.339Z,4.24
2019-01-12T03:41:31.498Z,4.24
2019-01-12T03:42:35.672Z,4.25
2019-01-12T03:43:39.832Z,4.26
2019-01-12T03:44:43.993Z,4.27
2019-01-12T03:45:47.980Z,4.27
2019-01-12T03:46:52.218Z,4.28
2019-01-12T03:47:56.471Z,4.30
2019-01-12T03:49:00.643Z,4.31
2019-01-12T03:50:04.739Z,4.33
2019-01-12T03:51:08.877Z,4.34
2019-01-12T03:52:13.062Z,4.34
2019-01-12T03:53:17.332Z,4.34
2019-01-12T03:54:21.447Z,4.33
2019-01-12T03:55:26.031Z,4.34
2019-01-12T03:56:29.756Z,4.34
2019-01-12T03:57:33.915Z,4.33
2019-01-12T03:58:38.179Z,4.33
2019-01-12T03:59:42.292Z,4.33
2019-01-12T04:00:46.384Z,4.34
2019-01-12T04:01:50.544Z,4.35
2019-01-12T04:02:54.713Z,4.36
2019-01-12T04:03:58.917Z,4.37
2019-01-12T04:05:03.034Z,4.39
2019-01-12T04:06:07.180Z,4.40
2019-01-12T04:07:11.336Z,4.41
2019-01-12T04:08:15.606Z,4.42
2019-01-12T04:09:19.670Z,4.43
2019-01-12T04:10:23.831Z,4.45
2019-01-12T04:11:27.970Z,4.46
2019-01-12T04:12:32.070Z,4.46
2019-01-12T04:13:36.271Z,4.47
2019-01-12T04:14:40.407Z,4.46
2019-01-12T04:15:44.543Z,4.46
2019-01-12T04:16:48.778Z,4.47
2019-01-12T04:17:52.826Z,4.48
2019-01-12T04:18:56.995Z,4.50
2019-01-12T04:20:01.131Z,4.53
2019-01-12T04:21:05.250Z,4.56
2019-01-12T04:22:09.373Z,4.59
2019-01-12T04:23:13.633Z,4.61
2019-01-12T04:24:17.839Z,4.63
2019-01-12T04:25:22.039Z,4.64
2019-01-12T04:26:26.213Z,4.66
2019-01-12T04:27:30.327Z,4.67
2019-01-12T04:28:34.537Z,4.67
2019-01-12T04:29:38.733Z,4.67
2019-01-12T04:30:42.825Z,4.67
2019-01-12T04:31:46.959Z,4.68
2019-01-12T04:32:51.067Z,4.68
2019-01-12T04:33:55.233Z,4.69
2019-01-12T04:34:59.391Z,4.68
2019-01-12T04:36:03.567Z,4.69
2019-01-12T04:37:07.724Z,4.70
2019-01-12T04:38:11.868Z,4.71
2019-01-12T04:39:16.047Z,4.72
2019-01-12T04:40:20.157Z,4.74
2019-01-12T04:41:24.409Z,4.76
2019-01-12T04:42:28.486Z,4.78
2019-01-12T04:43:32.654Z,4.78
2019-01-12T04:44:36.694Z,4.80
2019-01-12T04:45:40.996Z,4.81
2019-01-12T04:46:45.146Z,4.82
2019-01-12T04:47:49.288Z,4.82
2019-01-12T04:48:53.408Z,4.83
2019-01-12T04:49:57.727Z,4.83
2019-01-12T04:51:01.841Z,4.85
2019-01-12T04:52:05.992Z,4.86
2019-01-12T04:53:10.128Z,4.87
2019-01-12T04:54:14.255Z,4.86
2019-01-12T04:55:18.543Z,4.87
2019-01-12T04:56:22.654Z,4.87
2019-01-12T04:57:26.777Z,4.86
2019-01-12T04:58:31.040Z,4.86
2019-01-12T04:59:35.292Z,4.84
2019-01-12T05:00:39.349Z,4.83
2019-01-12T05:01:43.503Z,4.82
2019-01-12T05:02:47.667Z,4.81
2019-01-12T05:03:51.800Z,4.82
2019-01-12T05:04:55.941Z,4.82
2019-01-12T05:06:00.133Z,4.83
2019-01-12T05:07:04.337Z,4.84
2019-01-12T05:08:08.433Z,4.84
2019-01-12T05:09:12.606Z,4.84
2019-01-12T05:10:16.774Z,4.85
2019-01-12T05:11:21.030Z,4.87
2019-01-12T05:12:25.234Z,4.86
2019-01-12T05:13:29.339Z,4.86
2019-01-12T05:14:36.463Z,4.87
2019-01-12T05:15:39.684Z,4.88
2019-01-12T05:16:43.891Z,4.88
2019-01-12T05:17:47.998Z,4.88
2019-01-12T05:18:52.240Z,4.87
2019-01-12T05:19:56.395Z,4.88
2019-01-12T05:21:00.573Z,4.90
2019-01-12T05:22:04.778Z,4.91
2019-01-12T05:23:08.845Z,4.92
2019-01-12T05:24:13.078Z,4.93
2019-01-12T05:25:17.144Z,4.94
2019-01-12T05:26:21.406Z,4.95
2019-01-12T05:27:25.599Z,4.96
2019-01-12T05:28:29.772Z,4.97
2019-01-12T05:29:33.876Z,4.98
2019-01-12T05:30:38.020Z,5.00
2019-01-12T05:31:42.181Z,5.02
2019-01-12T05:32:46.337Z,5.03
2019-01-12T05:33:50.498Z,5.05
2019-01-12T05:34:54.719Z,5.06
2019-01-12T05:35:58.923Z,5.06
2019-01-12T05:37:03.040Z,5.05
2019-01-12T05:38:07.153Z,5.05
2019-01-12T05:39:11.315Z,5.05
2019-01-12T05:40:15.474Z,5.04
2019-01-12T05:41:19.675Z,5.02
2019-01-12T05:42:23.725Z,5.02
2019-01-12T05:43:27.932Z,5.02
2019-01-12T05:44:32.063Z,5.02
2019-01-12T05:45:36.253Z,5.01
2019-01-12T05:46:40.413Z,5.00
2019-01-12T05:47:44.546Z,5.00
2019-01-12T05:48:48.777Z,4.99
2019-01-12T05:49:54.236Z,4.99
2019-01-12T05:50:57.043Z,4.99
2019-01-12T05:52:01.245Z,4.99
2019-01-12T05:53:05.327Z,4.98
2019-01-12T05:54:09.488Z,4.99
2019-01-12T05:55:13.738Z,5.00
2019-01-12T05:56:17.964Z,4.99
2019-01-12T05:57:22.104Z,4.99
2019-01-12T05:58:26.237Z,5.00
2019-01-12T05:59:30.401Z,5.01
2019-01-12T06:00:34.586Z,5.03
2019-01-12T06:01:38.812Z,5.05
2019-01-12T06:02:42.939Z,5.07
2019-01-12T06:03:47.152Z,5.08
2019-01-12T06:04:51.370Z,5.10
2019-01-12T06:05:55.496Z,5.12
2019-01-12T06:06:59.746Z,5.13
2019-01-12T06:08:03.978Z,5.15
2019-01-12T06:09:08.049Z,5.16
2019-01-12T06:10:12.217Z,5.18
2019-01-12T06:11:16.457Z,5.18
2019-01-12T06:12:20.473Z,5.19
2019-01-12T06:13:24.684Z,5.19
2019-01-12T06:14:28.917Z,5.19
2019-01-12T06:15:33.039Z,5.20
2019-01-12T06:16:37.136Z,5.21
2019-01-12T06:17:41.297Z,5.22
2019-01-12T06:18:45.550Z,5.22
2019-01-12T06:19:49.707Z,5.23
2019-01-12T06:20:53.773Z,5.23
2019-01-12T06:21:57.952Z,5.25
2019-01-12T06:23:02.142Z,5.25
2019-01-12T06:24:06.266Z,5.24
2019-01-12T06:25:10.457Z,5.24
2019-01-12T06:26:14.728Z,5.25
2019-01-12T06:27:18.903Z,5.27
2019-01-12T06:28:23.043Z,5.27
2019-01-12T06:29:27.157Z,5.28
2019-01-12T06:30:31.347Z,5.27
2019-01-12T06:31:35.565Z,5.25
2019-01-12T06:32:39.700Z,5.25
2019-01-12T06:33:43.881Z,5.25
2019-01-12T06:34:48.137Z,5.25
2019-01-12T06:35:52.215Z,5.25
2019-01-12T06:36:56.501Z,5.25
2019-01-12T06:38:00.567Z,5.25
2019-01-12T06:39:04.793Z,5.24
2019-01-12T06:40:08.935Z,5.25
2019-01-12T06:41:13.178Z,5.26
2019-01-12T06:42:17.273Z,5.27
2019-01-12T06:43:21.558Z,5.27
2019-01-12T06:44:25.654Z,5.27
2019-01-12T06:45:29.894Z,5.28
2019-01-12T06:46:34.086Z,5.29
2019-01-12T06:47:38.182Z,5.30
2019-01-12T06:48:42.469Z,5.30
2019-01-12T06:49:49.653Z,5.30
2019-01-12T06:50:52.851Z,5.31
2019-01-12T06:51:56.950Z,5.32
2019-01-12T06:53:01.130Z,5.34
2019-01-12T06:54:05.295Z,5.35
2019-01-12T06:55:09.451Z,5.37
2019-01-12T06:56:13.602Z,5.37
2019-01-12T06:57:17.762Z,5.37
2019-01-12T06:58:21.912Z,5.38
2019-01-12T06:59:26.175Z,5.38
2019-01-12T07:00:30.264Z,5.38
2019-01-12T07:01:34.529Z,5.37
2019-01-12T07:02:38.737Z,5.37
2019-01-12T07:03:42.844Z,5.37
2019-01-12T07:04:47.088Z,5.36
2019-01-12T07:05:51.240Z,5.35
2019-01-12T07:06:55.480Z,5.34
2019-01-12T07:07:59.676Z,5.33
2019-01-12T07:09:03.769Z,5.32
2019-01-12T07:10:08.059Z,5.32
2019-01-12T07:11:12.132Z,5.33
2019-01-12T07:12:16.333Z,5.34
2019-01-12T07:13:20.476Z,5.35
2019-01-12T07:14:24.751Z,5.35
2019-01-12T07:15:28.833Z,5.34
2019-01-12T07:16:32.994Z,5.34
2019-01-12T07:17:37.176Z,5.33
2019-01-12T07:18:41.412Z,5.31
2019-01-12T07:19:45.650Z,5.31
2019-01-12T07:20:49.856Z,5.32
2019-01-12T07:21:53.931Z,5.31
2019-01-12T07:22:58.075Z,5.31
2019-01-12T07:24:02.221Z,5.31
2019-01-12T07:25:06.481Z,5.32
2019-01-12T07:26:10.635Z,5.32
2019-01-12T07:27:14.842Z,5.34
2019-01-12T07:28:19.075Z,5.34
2019-01-12T07:29:23.140Z,5.34
2019-01-12T07:30:27.400Z,5.35
2019-01-12T07:31:31.585Z,5.37
2019-01-12T07:32:35.777Z,5.39
2019-01-12T07:33:39.964Z,5.40
2019-01-12T07:34:44.135Z,5.41
2019-01-12T07:35:48.375Z,5.41
2019-01-12T07:36:52.548Z,5.42
2019-01-12T07:37:56.683Z,5.43
2019-01-12T07:39:00.992Z,5.43
2019-01-12T07:40:05.172Z,5.41
2019-01-12T07:41:09.390Z,5.40
2019-01-12T07:42:13.494Z,5.39
2019-01-12T07:43:17.682Z,5.40
2019-01-12T07:44:21.916Z,5.42
2019-01-12T07:45:26.135Z,5.43
2019-01-12T07:46:30.343Z,5.42
2019-01-12T07:47:34.486Z,5.42
2019-01-12T07:48:38.651Z,5.41
2019-01-12T07:49:42.902Z,5.40
2019-01-12T07:50:47.021Z,5.39
2019-01-12T07:51:51.207Z,5.37
2019-01-12T07:52:55.495Z,5.35
2019-01-12T07:53:59.694Z,5.35
2019-01-12T07:55:03.886Z,5.36
2019-01-12T07:56:08.112Z,5.37
2019-01-12T07:57:12.287Z,5.39
2019-01-12T07:58:16.490Z,5.40
2019-01-12T07:59:20.660Z,5.41
2019-01-12T08:00:24.786Z,5.41
2019-01-12T08:01:29.057Z,5.41
2019-01-12T08:02:33.180Z,5.40
2019-01-12T08:03:37.328Z,5.39
2019-01-12T08:04:41.482Z,5.38
2019-01-12T08:05:45.720Z,5.38
2019-01-12T08:06:49.863Z,5.39
2019-01-12T08:07:54.115Z,5.40
2019-01-12T08:08:58.247Z,5.42
2019-01-12T08:10:02.495Z,5.44
2019-01-12T08:11:06.639Z,5.46
2019-01-12T08:12:10.871Z,5.48
2019-01-12T08:13:15.063Z,5.48
2019-01-12T08:14:19.264Z,5.48
2019-01-12T08:15:23.378Z,5.49
2019-01-12T08:16:27.572Z,5.50
2019-01-12T08:17:31.798Z,5.51
2019-01-12T08:18:35.896Z,5.52
2019-01-12T08:19:40.082Z,5.52
2019-01-12T08:20:44.249Z,5.52
2019-01-12T08:21:48.424Z,5.51
2019-01-12T08:22:53.655Z,5.51
2019-01-12T08:23:56.772Z,5.50
2019-01-12T08:25:01.039Z,5.51
2019-01-12T08:26:05.236Z,5.51
2019-01-12T08:27:09.358Z,5.50
2019-01-12T08:28:13.500Z,5.49
2019-01-12T08:29:17.747Z,5.49
2019-01-12T08:30:21.937Z,5.50
2019-01-12T08:31:26.057Z,5.50
2019-01-12T08:32:30.336Z,5.51
2019-01-12T08:33:34.499Z,5.53
2019-01-12T08:34:38.697Z,5.55
2019-01-12T08:35:42.894Z,5.58
2019-01-12T08:36:47.897Z,5.60
2019-01-12T08:37:51.741Z,5.61
2019-01-12T08:38:55.851Z,5.62
2019-01-12T08:40:00.171Z,5.63
2019-01-12T08:41:04.307Z,5.64
2019-01-12T08:42:08.530Z,5.66
2019-01-12T08:43:12.614Z,5.67
2019-01-12T08:44:16.886Z,5.67
2019-01-12T08:45:20.981Z,5.66
2019-01-12T08:46:25.214Z,5.66
2019-01-12T08:47:29.426Z,5.66
2019-01-12T08:48:33.630Z,5.67
2019-01-12T08:49:37.828Z,5.68
2019-01-12T08:50:41.951Z,5.70
2019-01-12T08:51:46.100Z,5.70
2019-01-12T08:52:50.256Z,5.70
2019-01-12T08:53:54.370Z,5.70
2019-01-12T08:54:58.536Z,5.71
2019-01-12T08:56:02.802Z,5.71
2019-01-12T08:57:06.952Z,5.73
2019-01-12T08:58:11.072Z,5.74
2019-01-12T08:59:15.345Z,5.75
2019-01-12T09:00:19.453Z,5.75
2019-01-12T09:01:23.621Z,5.75
2019-01-12T09:02:27.851Z,5.75
2019-01-12T09:03:32.062Z,5.76
2019-01-12T09:04:43.379Z,5.77
2019-01-12T09:05:40.468Z,5.77
2019-01-12T09:06:44.599Z,5.77
2019-01-12T09:07:48.838Z,5.79
2019-01-12T09:08:52.992Z,5.80
2019-01-12T09:09:57.240Z,5.81
2019-01-12T09:11:01.451Z,5.83
2019-01-12T09:12:05.579Z,5.85
2019-01-12T09:13:09.737Z,5.87
2019-01-12T09:14:13.946Z,5.89
2019-01-12T09:15:18.171Z,5.90
2019-01-12T09:16:22.299Z,5.92
2019-01-12T09:17:26.553Z,5.94
2019-01-12T09:18:30.792Z,5.96
2019-01-12T09:19:34.920Z,5.97
2019-01-12T09:20:39.089Z,5.98
2019-01-12T09:21:43.223Z,5.99
2019-01-12T09:22:47.481Z,5.99
2019-01-12T09:23:51.737Z,6.00
2019-01-12T09:24:55.948Z,6.01
2019-01-12T09:26:00.144Z,6.03
2019-01-12T09:27:04.373Z,6.05
2019-01-12T09:28:08.471Z,6.05
2019-01-12T09:29:12.697Z,6.06
2019-01-12T09:30:16.937Z,6.06
2019-01-12T09:31:21.127Z,6.06
2019-01-12T09:32:25.221Z,6.07
2019-01-12T09:33:29.512Z,6.08
2019-01-12T09:34:33.640Z,6.09
2019-01-12T09:35:37.836Z,6.10
2019-01-12T09:36:42.032Z,6.11
2019-01-12T09:37:46.164Z,6.12
2019-01-12T09:38:50.492Z,6.13
2019-01-12T09:39:54.674Z,6.13
2019-01-12T09:40:58.898Z,6.14
2019-01-12T09:42:02.989Z,6.15
2019-01-12T09:43:07.263Z,6.17
2019-01-12T09:44:11.494Z,6.19
2019-01-12T09:45:15.587Z,6.20
2019-01-12T09:46:19.759Z,6.22
2019-01-12T09:47:24.051Z,6.22
2019-01-12T09:48:28.157Z,6.23
2019-01-12T09:49:32.342Z,6.24
2019-01-12T09:50:36.606Z,6.25
2019-01-12T09:51:40.807Z,6.26
2019-01-12T09:52:44.989Z,6.26
2019-01-12T09:53:49.103Z,6.27
2019-01-12T09:54:53.312Z,6.28
2019-01-12T09:55:57.552Z,6.29
2019-01-12T09:57:01.775Z,6.30
2019-01-12T09:58:05.970Z,6.31
2019-01-12T09:59:10.082Z,6.33
2019-01-12T10:00:14.357Z,6.34
2019-01-12T10:01:18.443Z,6.35
2019-01-12T10:02:22.707Z,6.36
2019-01-12T10:03:26.949Z,6.37
2019-01-12T10:04:31.078Z,6.37
2019-01-12T10:05:35.295Z,6.37
2019-01-12T10:06:39.443Z,6.38
2019-01-12T10:07:43.569Z,6.39
2019-01-12T10:08:47.769Z,6.38
2019-01-12T10:09:51.875Z,6.37
2019-01-12T10:10:56.072Z,6.37
2019-01-12T10:12:00.308Z,6.37
2019-01-12T10:13:04.471Z,6.37
2019-01-12T10:14:08.620Z,6.37
2019-01-12T10:15:12.837Z,6.37
2019-01-12T10:16:17.060Z,6.36
2019-01-12T10:17:21.260Z,6.35
2019-01-12T10:18:25.450Z,6.35
2019-01-12T10:19:29.721Z,6.34
2019-01-12T10:20:33.963Z,6.34
2019-01-12T10:21:38.140Z,6.35
2019-01-12T10:22:42.445Z,6.36
2019-01-12T10:23:46.578Z,6.37
2019-01-12T10:24:50.817Z,6.38
2019-01-12T10:25:54.954Z,6.38
2019-01-12T10:26:59.118Z,6.40
2019-01-12T10:28:03.373Z,6.42
2019-01-12T10:29:07.579Z,6.44
2019-01-12T10:30:11.798Z,6.43
2019-01-12T10:31:16.028Z,6.43
2019-01-12T10:32:20.230Z,6.43
2019-01-12T10:33:24.435Z,6.44
2019-01-12T10:34:31.660Z,6.45
2019-01-12T10:35:34.834Z,6.45
2019-01-12T10:36:39.003Z,6.45
2019-01-12T10:37:43.164Z,6.44
2019-01-12T10:38:47.405Z,6.42
2019-01-12T10:39:51.646Z,6.41
2019-01-12T10:40:55.860Z,6.40
2019-01-12T10:42:00.117Z,6.40
2019-01-12T10:43:04.254Z,6.42
2019-01-12T10:44:08.537Z,6.44
2019-01-12T10:45:12.778Z,6.47
2019-01-12T10:46:16.993Z,6.47
2019-01-12T10:47:21.139Z,6.48
2019-01-12T10:48:25.473Z,6.50
2019-01-12T10:49:29.647Z,6.52
2019-01-12T10:50:33.824Z,6.55
2019-01-12T10:51:38.131Z,6.58
2019-01-12T10:52:42.214Z,6.61
2019-01-12T10:53:46.508Z,6.65
2019-01-12T10:54:50.714Z,6.71
2019-01-12T10:55:54.845Z,6.77
2019-01-12T10:57:05.258Z,6.83
2019-01-12T10:58:03.411Z,6.89
2019-01-12T10:59:07.624Z,6.94
2019-01-12T11:00:11.878Z,6.98
2019-01-12T11:01:16.138Z,7.02
2019-01-12T11:02:20.253Z,7.04
2019-01-12T11:03:24.565Z,7.05
2019-01-12T11:04:28.788Z,7.07
2019-01-12T11:05:33.053Z,7.10
2019-01-12T11:06:37.176Z,7.12
2019-01-12T11:07:41.438Z,7.14
2019-01-12T11:08:45.696Z,7.16
2019-01-12T11:09:49.949Z,7.18
2019-01-12T11:10:54.101Z,7.20
2019-01-12T11:11:58.467Z,7.22
2019-01-12T11:13:02.583Z,7.22
2019-01-12T11:14:06.872Z,7.24
2019-01-12T11:15:11.137Z,7.25
2019-01-12T11:16:15.374Z,7.23
2019-01-12T11:17:19.583Z,7.21
2019-01-12T11:18:23.689Z,7.18
2019-01-12T11:19:28.816Z,7.14
2019-01-12T11:20:32.660Z,7.12
2019-01-12T11:21:36.922Z,7.12
2019-01-12T11:22:42.066Z,7.10
2019-01-12T11:23:45.931Z,7.09
2019-01-12T11:24:51.178Z,7.06
2019-01-12T11:25:54.889Z,7.05
2019-01-12T11:26:59.068Z,7.03
2019-01-12T11:28:03.333Z,7.03
2019-01-12T11:29:08.507Z,7.02
2019-01-12T11:30:12.309Z,6.99
2019-01-12T11:31:19.957Z,6.99
2019-01-12T11:32:21.214Z,7.00
2019-01-12T11:33:25.484Z,6.98
2019-01-12T11:34:29.717Z,6.98
2019-01-12T11:35:33.818Z,6.98
2019-01-12T11:36:38.057Z,6.99
2019-01-12T11:37:42.367Z,6.97
2019-01-12T11:38:46.554Z,6.96
2019-01-12T11:39:50.772Z,6.95
2019-01-12T11:40:55.030Z,6.95
2019-01-12T11:41:59.177Z,6.95
2019-01-12T11:43:03.479Z,6.94
2019-01-12T11:44:07.574Z,6.93
2019-01-12T11:45:11.862Z,6.92
2019-01-12T11:46:16.053Z,6.90
2019-01-12T11:47:20.266Z,6.90
2019-01-12T11:48:27.531Z,6.89
2019-01-12T11:49:30.863Z,6.87
2019-01-12T11:50:34.939Z,6.87
2019-01-12T11:51:39.174Z,6.86
2019-01-12T11:52:43.459Z,6.86
2019-01-12T11:53:47.682Z,6.85
2019-01-12T11:54:51.945Z,6.82
2019-01-12T11:55:56.191Z,6.80
2019-01-12T11:57:00.445Z,6.79
2019-01-12T11:58:04.562Z,6.78
2019-01-12T11:59:08.880Z,6.78
2019-01-12T12:00:13.085Z,6.79
2019-01-12T12:01:17.319Z,6.78
2019-01-12T12:02:21.537Z,6.78
2019-01-12T12:03:25.681Z,6.77
2019-01-12T12:04:29.983Z,6.77
2019-01-12T12:05:34.207Z,6.77
2019-01-12T12:06:38.289Z,6.78
2019-01-12T12:07:42.540Z,6.78
2019-01-12T12:08:46.809Z,6.78
2019-01-12T12:09:50.999Z,6.77
2019-01-12T12:10:55.126Z,6.76
2019-01-12T12:11:59.481Z,6.74
2019-01-12T12:13:03.557Z,6.74
2019-01-12T12:14:07.739Z,6.73
2019-01-12T12:15:12.001Z,6.71
2019-01-12T12:16:16.245Z,6.71
2019-01-12T12:17:20.479Z,6.70
2019-01-12T12:18:24.715Z,6.70
2019-01-12T12:19:28.954Z,6.67
2019-01-12T12:20:33.255Z,6.66
2019-01-12T12:21:37.452Z,6.65
2019-01-12T12:22:41.645Z,6.65
2019-01-12T12:23:45.925Z,6.65
2019-01-12T12:24:50.114Z,6.65
2019-01-12T12:25:54.286Z,6.65
2019-01-12T12:26:58.532Z,6.62
2019-01-12T12:28:02.782Z,6.61
2019-01-12T12:29:07.006Z,6.60
2019-01-12T12:30:11.119Z,6.60
2019-01-12T12:31:15.362Z,6.59
2019-01-12T12:32:19.564Z,6.59
2019-01-12T12:33:23.881Z,6.59
2019-01-12T12:34:27.995Z,6.57
2019-01-12T12:35:37.625Z,6.56
2019-01-12T12:36:36.808Z,6.56
2019-01-12T12:37:41.064Z,6.55
2019-01-12T12:38:46.222Z,6.56
2019-01-12T12:39:50.013Z,6.55
2019-01-12T12:40:54.321Z,6.55
2019-01-12T12:41:58.508Z,6.54
2019-01-12T12:43:02.637Z,6.54
2019-01-12T12:44:06.947Z,6.54
2019-01-12T12:45:11.050Z,6.54
2019-01-12T12:46:15.171Z,6.54
2019-01-12T12:47:19.475Z,6.54
2019-01-12T12:48:23.671Z,6.54
2019-01-12T12:49:27.867Z,6.53
2019-01-12T12:50:32.087Z,6.54
2019-01-12T12:51:36.284Z,6.53
2019-01-12T12:52:40.520Z,6.52
2019-01-12T12:53:44.637Z,6.52
2019-01-12T12:54:48.931Z,6.52
2019-01-12T12:55:53.132Z,6.52
2019-01-12T12:56:57.386Z,6.52
2019-01-12T12:58:01.491Z,6.51
2019-01-12T12:59:05.748Z,6.51
2019-01-12T13:00:09.991Z,6.51
2019-01-12T13:01:14.136Z,6.52
2019-01-12T13:02:18.439Z,6.51
2019-01-12T13:03:25.547Z,6.51
2019-01-12T13:04:28.746Z,6.51
2019-01-12T13:05:33.150Z,6.50
2019-01-12T13:06:37.234Z,6.50
2019-01-12T13:07:41.491Z,6.49
2019-01-12T13:08:48.601Z,6.49
2019-01-12T13:09:49.761Z,6.48
2019-01-12T13:10:53.957Z,6.47
2019-01-12T13:11:58.149Z,6.47
2019-01-12T13:13:02.425Z,6.47
2019-01-12T13:14:06.655Z,6.46
2019-01-12T13:15:10.843Z,6.46
2019-01-12T13:16:15.180Z,6.46
2019-01-12T13:17:19.319Z,6.46
2019-01-12T13:18:23.672Z,6.46
2019-01-12T13:19:30.897Z,6.45
2019-01-12T13:20:34.178Z,6.44
2019-01-12T13:21:41.372Z,6.43
2019-01-12T13:22:44.535Z,6.43
2019-01-12T13:23:48.795Z,6.43
2019-01-12T13:24:53.088Z,6.42
2019-01-12T13:25:58.317Z,6.42
2019-01-12T13:27:01.996Z,6.41
2019-01-12T13:28:06.251Z,6.41
2019-01-12T13:29:10.503Z,6.41
2019-01-12T13:30:15.696Z,6.41
2019-01-12T13:31:19.534Z,6.41
2019-01-12T13:32:23.703Z,6.41
2019-01-12T13:33:27.936Z,6.40
2019-01-12T13:34:32.163Z,6.40
2019-01-12T13:35:36.377Z,6.39
2019-01-12T13:36:40.619Z,6.39
2019-01-12T13:37:44.867Z,6.39
2019-01-12T13:38:49.055Z,6.39
2019-01-12T13:39:53.320Z,6.39
2019-01-12T13:40:57.539Z,6.38
2019-01-12T13:42:01.724Z,6.38
2019-01-12T13:43:05.940Z,6.38
2019-01-12T13:44:10.068Z,6.37
2019-01-12T13:45:14.268Z,6.36
2019-01-12T13:46:18.534Z,6.36
2019-01-12T13:47:22.739Z,6.36
2019-01-12T13:48:26.925Z,6.37
2019-01-12T13:49:31.085Z,6.37
2019-01-12T13:50:35.334Z,6.38
2019-01-12T13:51:39.501Z,6.38
2019-01-12T13:52:43.747Z,6.38
2019-01-12T13:53:47.997Z,6.38
2019-01-12T13:54:53.047Z,6.39
2019-01-12T13:55:56.388Z,6.39
2019-01-12T13:56:59.829Z,6.39
2019-01-12T13:58:04.944Z,6.39
2019-01-12T13:59:08.768Z,6.39
2019-01-12T14:00:12.853Z,6.39
2019-01-12T14:01:17.119Z,6.38
2019-01-12T14:02:21.358Z,6.38
2019-01-12T14:03:25.409Z,6.38
2019-01-12T14:04:29.732Z,6.37
2019-01-12T14:05:33.867Z,6.36
2019-01-12T14:06:38.151Z,6.36
2019-01-12T14:07:42.326Z,6.35
2019-01-12T14:08:46.544Z,6.35
2019-01-12T14:09:50.688Z,6.36
2019-01-12T14:10:54.983Z,6.36
2019-01-12T14:11:59.219Z,6.37
2019-01-12T14:13:04.570Z,6.38
2019-01-12T14:14:08.344Z,6.38